sensor_id;sensor_type;location;lat;lon;timestamp;P1;durP1;ratioP1;P2;durP2;ratioP2
35326;SDS011;21436;52.348;20.928;2023-09-19T00:00:49;22.20;;;11.65;;
35326;SDS011;21436;52.348;20.928;2023-09-19T00:03:38;17.50;;;11.77;;
35326;SDS011;21436;52.348;20.928;2023-09-19T00:06:07;18.35;;;12.27;;
35326;SDS011;21436;52.348;20.928;2023-09-19T00:08:37;17.15;;;11.45;;
35326;SDS011;21436;52.348;20.928;2023-09-19T00:11:05;20.25;;;13.35;;
35326;SDS011;21436;52.348;20.928;2023-09-19T00:13:34;19.70;;;12.32;;
35326;SDS011;21436;52.348;20.928;2023-09-19T00:16:10;20.45;;;12.55;;
35326;SDS011;21436;52.348;20.928;2023-09-19T00:18:39;23.52;;;13.10;;
35326;SDS011;21436;52.348;20.928;2023-09-19T00:21:08;25.33;;;13.45;;
35326;SDS011;21436;52.348;20.928;2023-09-19T00:23:38;18.77;;;13.40;;
35326;SDS011;21436;52.348;20.928;2023-09-19T00:26:08;20.05;;;12.73;;
35326;SDS011;21436;52.348;20.928;2023-09-19T00:28:37;20.45;;;12.48;;
35326;SDS011;21436;52.348;20.928;2023-09-19T00:31:07;20.48;;;12.27;;
35326;SDS011;21436;52.348;20.928;2023-09-19T00:33:37;21.98;;;12.82;;
35326;SDS011;21436;52.348;20.928;2023-09-19T00:36:05;19.40;;;12.77;;
35326;SDS011;21436;52.348;20.928;2023-09-19T00:38:34;21.85;;;13.85;;
35326;SDS011;21436;52.348;20.928;2023-09-19T00:41:02;18.30;;;12.30;;
35326;SDS011;21436;52.348;20.928;2023-09-19T00:43:31;26.80;;;12.45;;
35326;SDS011;21436;52.348;20.928;2023-09-19T00:46:02;20.25;;;13.27;;
35326;SDS011;21436;52.348;20.928;2023-09-19T00:48:31;17.65;;;12.60;;
35326;SDS011;21436;52.348;20.928;2023-09-19T00:51:02;22.13;;;13.25;;
35326;SDS011;21436;52.348;20.928;2023-09-19T00:53:33;21.48;;;12.38;;
35326;SDS011;21436;52.348;20.928;2023-09-19T00:56:02;18.83;;;12.75;;
35326;SDS011;21436;52.348;20.928;2023-09-19T00:58:32;20.50;;;12.55;;
35326;SDS011;21436;52.348;20.928;2023-09-19T01:01:02;20.25;;;13.50;;
35326;SDS011;21436;52.348;20.928;2023-09-19T01:03:38;23.15;;;13.60;;
35326;SDS011;21436;52.348;20.928;2023-09-19T01:06:08;19.73;;;12.77;;
35326;SDS011;21436;52.348;20.928;2023-09-19T01:08:39;20.77;;;13.52;;
35326;SDS011;21436;52.348;20.928;2023-09-19T01:11:13;21.35;;;13.07;;
35326;SDS011;21436;52.348;20.928;2023-09-19T01:13:58;21.10;;;12.07;;
35326;SDS011;21436;52.348;20.928;2023-09-19T01:30:57;23.52;;;14.63;;
35326;SDS011;21436;52.348;20.928;2023-09-19T01:33:53;23.33;;;14.73;;
35326;SDS011;21436;52.348;20.928;2023-09-19T01:36:26;30.60;;;14.10;;
35326;SDS011;21436;52.348;20.928;2023-09-19T01:39:12;23.02;;;13.82;;
35326;SDS011;21436;52.348;20.928;2023-09-19T01:41:45;20.10;;;13.18;;
35326;SDS011;21436;52.348;20.928;2023-09-19T01:44:16;19.17;;;12.73;;
35326;SDS011;21436;52.348;20.928;2023-09-19T01:46:50;22.10;;;14.18;;
35326;SDS011;21436;52.348;20.928;2023-09-19T01:49:37;20.58;;;13.38;;
35326;SDS011;21436;52.348;20.928;2023-09-19T01:52:12;22.33;;;13.80;;
35326;SDS011;21436;52.348;20.928;2023-09-19T01:54:52;23.08;;;14.45;;
35326;SDS011;21436;52.348;20.928;2023-09-19T01:57:22;21.77;;;13.77;;
35326;SDS011;21436;52.348;20.928;2023-09-19T01:59:59;20.10;;;13.18;;
35326;SDS011;21436;52.348;20.928;2023-09-19T02:02:44;20.73;;;13.35;;
35326;SDS011;21436;52.348;20.928;2023-09-19T02:05:27;20.25;;;13.63;;
35326;SDS011;21436;52.348;20.928;2023-09-19T02:07:56;22.33;;;13.38;;
35326;SDS011;21436;52.348;20.928;2023-09-19T02:10:26;23.77;;;14.05;;
35326;SDS011;21436;52.348;20.928;2023-09-19T02:12:55;24.15;;;14.55;;
35326;SDS011;21436;52.348;20.928;2023-09-19T02:15:23;23.13;;;13.73;;
35326;SDS011;21436;52.348;20.928;2023-09-19T02:17:52;22.80;;;13.65;;
35326;SDS011;21436;52.348;20.928;2023-09-19T02:20:20;23.80;;;14.00;;
35326;SDS011;21436;52.348;20.928;2023-09-19T02:22:49;20.73;;;13.73;;
35326;SDS011;21436;52.348;20.928;2023-09-19T02:25:19;21.95;;;13.65;;
35326;SDS011;21436;52.348;20.928;2023-09-19T02:27:48;26.77;;;13.93;;
35326;SDS011;21436;52.348;20.928;2023-09-19T02:30:16;24.23;;;14.05;;
35326;SDS011;21436;52.348;20.928;2023-09-19T02:32:48;21.88;;;14.07;;
35326;SDS011;21436;52.348;20.928;2023-09-19T02:35:17;24.85;;;13.55;;
35326;SDS011;21436;52.348;20.928;2023-09-19T02:37:48;24.58;;;14.48;;
35326;SDS011;21436;52.348;20.928;2023-09-19T02:40:16;26.58;;;13.70;;
35326;SDS011;21436;52.348;20.928;2023-09-19T02:42:48;23.52;;;15.13;;
35326;SDS011;21436;52.348;20.928;2023-09-19T02:45:17;23.50;;;13.30;;
35326;SDS011;21436;52.348;20.928;2023-09-19T02:47:46;27.27;;;14.25;;
35326;SDS011;21436;52.348;20.928;2023-09-19T02:50:15;21.33;;;14.27;;
35326;SDS011;21436;52.348;20.928;2023-09-19T02:52:44;23.38;;;14.18;;
35326;SDS011;21436;52.348;20.928;2023-09-19T02:55:16;19.98;;;12.68;;
35326;SDS011;21436;52.348;20.928;2023-09-19T02:57:48;25.93;;;14.13;;
35326;SDS011;21436;52.348;20.928;2023-09-19T03:00:17;22.95;;;14.65;;
35326;SDS011;21436;52.348;20.928;2023-09-19T03:02:52;23.08;;;13.35;;
35326;SDS011;21436;52.348;20.928;2023-09-19T03:05:24;23.38;;;13.93;;
35326;SDS011;21436;52.348;20.928;2023-09-19T03:07:54;22.92;;;14.20;;
35326;SDS011;21436;52.348;20.928;2023-09-19T03:10:23;24.92;;;14.82;;
35326;SDS011;21436;52.348;20.928;2023-09-19T03:12:53;19.65;;;13.63;;
35326;SDS011;21436;52.348;20.928;2023-09-19T03:15:22;23.83;;;14.20;;
35326;SDS011;21436;52.348;20.928;2023-09-19T03:17:52;24.05;;;13.70;;
35326;SDS011;21436;52.348;20.928;2023-09-19T03:20:24;24.15;;;15.05;;
35326;SDS011;21436;52.348;20.928;2023-09-19T03:22:53;23.08;;;14.00;;
35326;SDS011;21436;52.348;20.928;2023-09-19T03:25:22;21.13;;;14.05;;
35326;SDS011;21436;52.348;20.928;2023-09-19T03:27:52;23.83;;;14.63;;
35326;SDS011;21436;52.348;20.928;2023-09-19T03:30:22;22.38;;;14.13;;
35326;SDS011;21436;52.348;20.928;2023-09-19T03:32:51;25.23;;;15.60;;
35326;SDS011;21436;52.348;20.928;2023-09-19T03:35:19;22.98;;;13.85;;
35326;SDS011;21436;52.348;20.928;2023-09-19T03:37:48;21.95;;;14.23;;
35326;SDS011;21436;52.348;20.928;2023-09-19T03:40:17;20.85;;;13.98;;
35326;SDS011;21436;52.348;20.928;2023-09-19T03:42:49;22.98;;;14.18;;
35326;SDS011;21436;52.348;20.928;2023-09-19T03:45:18;23.08;;;15.70;;
35326;SDS011;21436;52.348;20.928;2023-09-19T03:47:50;23.40;;;14.37;;
35326;SDS011;21436;52.348;20.928;2023-09-19T03:50:20;26.25;;;14.90;;
35326;SDS011;21436;52.348;20.928;2023-09-19T03:52:49;25.73;;;14.50;;
35326;SDS011;21436;52.348;20.928;2023-09-19T03:55:17;24.92;;;15.68;;
35326;SDS011;21436;52.348;20.928;2023-09-19T03:57:49;23.02;;;15.02;;
35326;SDS011;21436;52.348;20.928;2023-09-19T04:00:18;26.13;;;15.68;;
35326;SDS011;21436;52.348;20.928;2023-09-19T04:02:51;24.30;;;15.57;;
35326;SDS011;21436;52.348;20.928;2023-09-19T04:05:20;25.05;;;14.38;;
35326;SDS011;21436;52.348;20.928;2023-09-19T04:07:48;23.42;;;14.82;;
35326;SDS011;21436;52.348;20.928;2023-09-19T04:11:07;22.60;;;14.23;;
35326;SDS011;21436;52.348;20.928;2023-09-19T04:13:36;22.05;;;13.93;;
35326;SDS011;21436;52.348;20.928;2023-09-19T04:16:04;23.25;;;14.18;;
35326;SDS011;21436;52.348;20.928;2023-09-19T04:18:34;27.02;;;15.05;;
35326;SDS011;21436;52.348;20.928;2023-09-19T04:21:06;21.13;;;14.45;;
35326;SDS011;21436;52.348;20.928;2023-09-19T04:23:34;22.30;;;14.95;;
35326;SDS011;21436;52.348;20.928;2023-09-19T04:26:03;26.23;;;14.50;;
35326;SDS011;21436;52.348;20.928;2023-09-19T04:28:35;23.15;;;13.98;;
35326;SDS011;21436;52.348;20.928;2023-09-19T04:31:05;25.65;;;14.43;;
35326;SDS011;21436;52.348;20.928;2023-09-19T04:33:37;23.45;;;15.10;;
35326;SDS011;21436;52.348;20.928;2023-09-19T04:36:06;23.35;;;15.02;;
35326;SDS011;21436;52.348;20.928;2023-09-19T04:38:55;31.42;;;14.82;;
35326;SDS011;21436;52.348;20.928;2023-09-19T04:41:23;22.55;;;14.52;;
35326;SDS011;21436;52.348;20.928;2023-09-19T04:43:52;26.02;;;14.95;;
35326;SDS011;21436;52.348;20.928;2023-09-19T04:46:20;21.92;;;14.55;;
35326;SDS011;21436;52.348;20.928;2023-09-19T04:48:49;23.15;;;15.05;;
35326;SDS011;21436;52.348;20.928;2023-09-19T04:51:17;22.55;;;14.55;;
35326;SDS011;21436;52.348;20.928;2023-09-19T04:53:46;31.88;;;13.65;;
35326;SDS011;21436;52.348;20.928;2023-09-19T04:56:15;20.30;;;14.00;;
35326;SDS011;21436;52.348;20.928;2023-09-19T04:58:44;22.48;;;13.75;;
35326;SDS011;21436;52.348;20.928;2023-09-19T05:01:12;25.08;;;13.90;;
35326;SDS011;21436;52.348;20.928;2023-09-19T05:03:43;20.90;;;14.07;;
35326;SDS011;21436;52.348;20.928;2023-09-19T05:06:13;24.02;;;13.40;;
35326;SDS011;21436;52.348;20.928;2023-09-19T05:08:41;22.23;;;14.18;;
35326;SDS011;21436;52.348;20.928;2023-09-19T05:11:09;20.23;;;13.18;;
35326;SDS011;21436;52.348;20.928;2023-09-19T05:13:37;25.70;;;14.45;;
35326;SDS011;21436;52.348;20.928;2023-09-19T05:16:06;19.88;;;13.38;;
35326;SDS011;21436;52.348;20.928;2023-09-19T05:18:38;24.27;;;13.50;;
35326;SDS011;21436;52.348;20.928;2023-09-19T05:21:06;22.17;;;14.13;;
35326;SDS011;21436;52.348;20.928;2023-09-19T05:23:35;20.15;;;12.65;;
35326;SDS011;21436;52.348;20.928;2023-09-19T05:26:05;21.40;;;12.38;;
35326;SDS011;21436;52.348;20.928;2023-09-19T05:28:33;21.45;;;12.88;;
35326;SDS011;21436;52.348;20.928;2023-09-19T05:31:03;20.73;;;12.90;;
35326;SDS011;21436;52.348;20.928;2023-09-19T05:33:31;22.38;;;13.77;;
35326;SDS011;21436;52.348;20.928;2023-09-19T05:36:00;18.75;;;12.50;;
35326;SDS011;21436;52.348;20.928;2023-09-19T05:38:29;25.10;;;12.93;;
35326;SDS011;21436;52.348;20.928;2023-09-19T05:40:57;19.15;;;11.43;;
35326;SDS011;21436;52.348;20.928;2023-09-19T05:43:26;22.95;;;12.13;;
35326;SDS011;21436;52.348;20.928;2023-09-19T05:45:55;22.75;;;12.07;;
35326;SDS011;21436;52.348;20.928;2023-09-19T05:48:24;18.60;;;11.35;;
35326;SDS011;21436;52.348;20.928;2023-09-19T05:50:53;17.02;;;12.02;;
35326;SDS011;21436;52.348;20.928;2023-09-19T05:53:21;18.70;;;12.25;;
35326;SDS011;21436;52.348;20.928;2023-09-19T05:55:50;20.38;;;12.65;;
35326;SDS011;21436;52.348;20.928;2023-09-19T05:58:20;18.65;;;12.23;;
35326;SDS011;21436;52.348;20.928;2023-09-19T06:00:48;17.67;;;11.90;;
35326;SDS011;21436;52.348;20.928;2023-09-19T06:03:17;22.13;;;12.18;;
35326;SDS011;21436;52.348;20.928;2023-09-19T06:05:46;20.95;;;12.10;;
35326;SDS011;21436;52.348;20.928;2023-09-19T06:08:17;17.45;;;12.00;;
35326;SDS011;21436;52.348;20.928;2023-09-19T06:10:46;22.55;;;12.25;;
35326;SDS011;21436;52.348;20.928;2023-09-19T06:13:15;17.70;;;11.07;;
35326;SDS011;21436;52.348;20.928;2023-09-19T06:15:43;21.30;;;12.75;;
35326;SDS011;21436;52.348;20.928;2023-09-19T06:18:12;19.20;;;12.32;;
35326;SDS011;21436;52.348;20.928;2023-09-19T06:20:47;17.60;;;11.10;;
35326;SDS011;21436;52.348;20.928;2023-09-19T06:23:18;23.98;;;11.77;;
35326;SDS011;21436;52.348;20.928;2023-09-19T06:25:49;19.02;;;11.77;;
35326;SDS011;21436;52.348;20.928;2023-09-19T06:28:17;20.10;;;11.55;;
35326;SDS011;21436;52.348;20.928;2023-09-19T06:30:52;16.98;;;12.02;;
35326;SDS011;21436;52.348;20.928;2023-09-19T06:33:20;21.08;;;11.90;;
35326;SDS011;21436;52.348;20.928;2023-09-19T06:35:49;17.70;;;11.57;;
35326;SDS011;21436;52.348;20.928;2023-09-19T06:38:19;17.17;;;11.70;;
35326;SDS011;21436;52.348;20.928;2023-09-19T06:40:47;17.25;;;11.30;;
35326;SDS011;21436;52.348;20.928;2023-09-19T06:43:16;18.75;;;11.73;;
35326;SDS011;21436;52.348;20.928;2023-09-19T06:45:45;17.02;;;11.80;;
35326;SDS011;21436;52.348;20.928;2023-09-19T06:48:13;17.83;;;11.68;;
35326;SDS011;21436;52.348;20.928;2023-09-19T06:50:42;19.30;;;11.63;;
35326;SDS011;21436;52.348;20.928;2023-09-19T06:53:12;20.10;;;12.05;;
35326;SDS011;21436;52.348;20.928;2023-09-19T06:55:41;20.83;;;11.52;;
35326;SDS011;21436;52.348;20.928;2023-09-19T06:58:12;17.60;;;12.32;;
35326;SDS011;21436;52.348;20.928;2023-09-19T07:00:40;18.38;;;12.70;;
35326;SDS011;21436;52.348;20.928;2023-09-19T07:03:08;19.50;;;12.25;;
35326;SDS011;21436;52.348;20.928;2023-09-19T07:05:39;22.10;;;12.10;;
35326;SDS011;21436;52.348;20.928;2023-09-19T07:08:09;17.08;;;11.73;;
35326;SDS011;21436;52.348;20.928;2023-09-19T07:10:40;18.48;;;11.40;;
35326;SDS011;21436;52.348;20.928;2023-09-19T07:13:10;21.98;;;12.23;;
35326;SDS011;21436;52.348;20.928;2023-09-19T07:15:38;15.68;;;11.30;;
35326;SDS011;21436;52.348;20.928;2023-09-19T07:18:09;17.63;;;11.43;;
35326;SDS011;21436;52.348;20.928;2023-09-19T07:20:39;18.98;;;13.07;;
35326;SDS011;21436;52.348;20.928;2023-09-19T07:23:07;19.58;;;12.95;;
35326;SDS011;21436;52.348;20.928;2023-09-19T07:25:35;21.08;;;12.35;;
35326;SDS011;21436;52.348;20.928;2023-09-19T07:28:04;21.15;;;12.70;;
35326;SDS011;21436;52.348;20.928;2023-09-19T07:30:35;19.05;;;13.32;;
35326;SDS011;21436;52.348;20.928;2023-09-19T07:33:05;19.92;;;13.27;;
35326;SDS011;21436;52.348;20.928;2023-09-19T07:35:33;19.50;;;13.13;;
35326;SDS011;21436;52.348;20.928;2023-09-19T07:38:02;30.83;;;13.20;;
35326;SDS011;21436;52.348;20.928;2023-09-19T07:40:31;23.13;;;13.27;;
35326;SDS011;21436;52.348;20.928;2023-09-19T07:42:59;22.50;;;13.55;;
35326;SDS011;21436;52.348;20.928;2023-09-19T07:45:32;22.13;;;13.88;;
35326;SDS011;21436;52.348;20.928;2023-09-19T07:48:01;22.02;;;14.35;;
35326;SDS011;21436;52.348;20.928;2023-09-19T07:50:33;21.52;;;14.45;;
35326;SDS011;21436;52.348;20.928;2023-09-19T07:53:05;22.27;;;15.43;;
35326;SDS011;21436;52.348;20.928;2023-09-19T07:55:32;21.25;;;14.00;;
35326;SDS011;21436;52.348;20.928;2023-09-19T07:58:02;23.17;;;14.68;;
35326;SDS011;21436;52.348;20.928;2023-09-19T08:00:32;22.55;;;15.52;;
35326;SDS011;21436;52.348;20.928;2023-09-19T08:03:02;21.60;;;14.00;;
35326;SDS011;21436;52.348;20.928;2023-09-19T08:05:43;24.60;;;14.05;;
35326;SDS011;21436;52.348;20.928;2023-09-19T08:08:13;22.05;;;14.60;;
35326;SDS011;21436;52.348;20.928;2023-09-19T08:10:42;19.85;;;14.85;;
35326;SDS011;21436;52.348;20.928;2023-09-19T08:13:14;26.15;;;14.70;;
35326;SDS011;21436;52.348;20.928;2023-09-19T08:15:44;25.75;;;15.60;;
35326;SDS011;21436;52.348;20.928;2023-09-19T08:18:17;22.88;;;15.32;;
35326;SDS011;21436;52.348;20.928;2023-09-19T08:20:52;26.98;;;15.52;;
35326;SDS011;21436;52.348;20.928;2023-09-19T08:23:21;23.60;;;14.50;;
35326;SDS011;21436;52.348;20.928;2023-09-19T08:25:49;21.50;;;14.75;;
35326;SDS011;21436;52.348;20.928;2023-09-19T08:28:18;20.25;;;14.10;;
35326;SDS011;21436;52.348;20.928;2023-09-19T08:30:50;25.10;;;13.95;;
35326;SDS011;21436;52.348;20.928;2023-09-19T08:33:19;21.20;;;12.90;;
35326;SDS011;21436;52.348;20.928;2023-09-19T08:35:47;22.23;;;12.50;;
35326;SDS011;21436;52.348;20.928;2023-09-19T08:38:15;18.63;;;12.32;;
35326;SDS011;21436;52.348;20.928;2023-09-19T08:40:44;21.00;;;13.23;;
35326;SDS011;21436;52.348;20.928;2023-09-19T08:43:12;30.02;;;14.13;;
35326;SDS011;21436;52.348;20.928;2023-09-19T08:45:40;24.65;;;14.27;;
35326;SDS011;21436;52.348;20.928;2023-09-19T08:53:40;24.33;;;15.65;;
35326;SDS011;21436;52.348;20.928;2023-09-19T08:56:27;31.50;;;17.00;;
35326;SDS011;21436;52.348;20.928;2023-09-19T08:58:57;30.27;;;18.25;;
35326;SDS011;21436;52.348;20.928;2023-09-19T09:01:31;35.47;;;18.42;;
35326;SDS011;21436;52.348;20.928;2023-09-19T09:04:01;34.65;;;18.35;;
35326;SDS011;21436;52.348;20.928;2023-09-19T09:06:29;31.27;;;18.65;;
35326;SDS011;21436;52.348;20.928;2023-09-19T09:09:00;34.40;;;18.50;;
35326;SDS011;21436;52.348;20.928;2023-09-19T09:11:29;31.52;;;19.13;;
35326;SDS011;21436;52.348;20.928;2023-09-19T09:14:01;32.10;;;18.20;;
35326;SDS011;21436;52.348;20.928;2023-09-19T09:16:30;28.30;;;17.20;;
35326;SDS011;21436;52.348;20.928;2023-09-19T09:18:59;25.10;;;16.67;;
35326;SDS011;21436;52.348;20.928;2023-09-19T09:21:28;24.05;;;15.60;;
35326;SDS011;21436;52.348;20.928;2023-09-19T09:23:57;28.85;;;16.40;;
35326;SDS011;21436;52.348;20.928;2023-09-19T09:29:11;28.55;;;16.15;;
35326;SDS011;21436;52.348;20.928;2023-09-19T09:31:41;29.25;;;17.52;;
35326;SDS011;21436;52.348;20.928;2023-09-19T09:34:10;33.92;;;18.13;;
35326;SDS011;21436;52.348;20.928;2023-09-19T09:36:41;32.60;;;17.75;;
35326;SDS011;21436;52.348;20.928;2023-09-19T09:39:09;34.97;;;19.00;;
35326;SDS011;21436;52.348;20.928;2023-09-19T09:41:45;29.65;;;17.98;;
35326;SDS011;21436;52.348;20.928;2023-09-19T09:44:17;28.45;;;16.92;;
35326;SDS011;21436;52.348;20.928;2023-09-19T09:46:47;29.58;;;16.27;;
35326;SDS011;21436;52.348;20.928;2023-09-19T09:49:23;25.67;;;16.15;;
35326;SDS011;21436;52.348;20.928;2023-09-19T09:51:58;25.98;;;15.10;;
35326;SDS011;21436;52.348;20.928;2023-09-19T09:57:35;22.73;;;14.63;;
35326;SDS011;21436;52.348;20.928;2023-09-19T10:00:04;25.50;;;14.98;;
35326;SDS011;21436;52.348;20.928;2023-09-19T10:02:39;24.08;;;14.30;;
35326;SDS011;21436;52.348;20.928;2023-09-19T10:05:15;22.55;;;13.63;;
35326;SDS011;21436;52.348;20.928;2023-09-19T10:07:55;19.58;;;13.23;;
35326;SDS011;21436;52.348;20.928;2023-09-19T10:10:37;20.45;;;13.35;;
35326;SDS011;21436;52.348;20.928;2023-09-19T10:13:09;20.30;;;12.35;;
35326;SDS011;21436;52.348;20.928;2023-09-19T10:15:44;20.33;;;13.05;;
35326;SDS011;21436;52.348;20.928;2023-09-19T10:18:20;17.45;;;11.23;;
35326;SDS011;21436;52.348;20.928;2023-09-19T10:20:50;17.90;;;11.88;;
35326;SDS011;21436;52.348;20.928;2023-09-19T10:23:19;20.00;;;11.85;;
35326;SDS011;21436;52.348;20.928;2023-09-19T10:25:52;18.83;;;12.43;;
35326;SDS011;21436;52.348;20.928;2023-09-19T10:28:21;14.48;;;10.32;;
35326;SDS011;21436;52.348;20.928;2023-09-19T10:30:51;21.83;;;10.93;;
35326;SDS011;21436;52.348;20.928;2023-09-19T10:33:21;15.77;;;10.43;;
35326;SDS011;21436;52.348;20.928;2023-09-19T10:35:51;14.82;;;10.18;;
35326;SDS011;21436;52.348;20.928;2023-09-19T10:38:22;16.15;;;10.40;;
35326;SDS011;21436;52.348;20.928;2023-09-19T10:40:55;65.30;;;15.83;;
35326;SDS011;21436;52.348;20.928;2023-09-19T10:43:29;21.67;;;10.18;;
35326;SDS011;21436;52.348;20.928;2023-09-19T10:46:12;14.13;;;8.10;;
35326;SDS011;21436;52.348;20.928;2023-09-19T10:48:41;37.95;;;11.18;;
35326;SDS011;21436;52.348;20.928;2023-09-19T10:51:16;12.23;;;7.88;;
35326;SDS011;21436;52.348;20.928;2023-09-19T10:53:55;10.38;;;7.15;;
35326;SDS011;21436;52.348;20.928;2023-09-19T10:57:11;12.48;;;8.10;;
35326;SDS011;21436;52.348;20.928;2023-09-19T10:59:21;9.57;;;7.35;;
35326;SDS011;21436;52.348;20.928;2023-09-19T11:01:53;9.73;;;7.32;;
35326;SDS011;21436;52.348;20.928;2023-09-19T11:04:31;10.98;;;7.35;;
35326;SDS011;21436;52.348;20.928;2023-09-19T11:07:10;11.30;;;6.93;;
35326;SDS011;21436;52.348;20.928;2023-09-19T11:09:46;10.63;;;7.63;;
35326;SDS011;21436;52.348;20.928;2023-09-19T11:15:08;9.82;;;6.65;;
35326;SDS011;21436;52.348;20.928;2023-09-19T11:17:42;9.68;;;7.10;;
35326;SDS011;21436;52.348;20.928;2023-09-19T11:20:16;10.25;;;7.00;;
35326;SDS011;21436;52.348;20.928;2023-09-19T11:30:50;10.20;;;6.32;;
35326;SDS011;21436;52.348;20.928;2023-09-19T11:33:29;9.55;;;6.68;;
35326;SDS011;21436;52.348;20.928;2023-09-19T11:36:05;9.52;;;6.25;;
35326;SDS011;21436;52.348;20.928;2023-09-19T11:46:51;9.45;;;6.80;;
35326;SDS011;21436;52.348;20.928;2023-09-19T11:49:27;8.32;;;6.70;;
35326;SDS011;21436;52.348;20.928;2023-09-19T11:52:01;11.73;;;7.20;;
35326;SDS011;21436;52.348;20.928;2023-09-19T11:54:35;10.80;;;6.85;;
35326;SDS011;21436;52.348;20.928;2023-09-19T11:59:38;10.45;;;7.38;;
35326;SDS011;21436;52.348;20.928;2023-09-19T12:02:07;11.32;;;7.22;;
35326;SDS011;21436;52.348;20.928;2023-09-19T12:04:42;13.70;;;7.68;;
35326;SDS011;21436;52.348;20.928;2023-09-19T12:07:15;13.45;;;7.68;;
35326;SDS011;21436;52.348;20.928;2023-09-19T12:09:45;23.55;;;7.32;;
35326;SDS011;21436;52.348;20.928;2023-09-19T12:12:25;8.95;;;6.50;;
35326;SDS011;21436;52.348;20.928;2023-09-19T12:15:01;11.55;;;7.35;;
35326;SDS011;21436;52.348;20.928;2023-09-19T12:17:49;10.15;;;6.82;;
35326;SDS011;21436;52.348;20.928;2023-09-19T12:20:18;10.23;;;7.65;;
35326;SDS011;21436;52.348;20.928;2023-09-19T12:22:46;9.38;;;7.03;;
35326;SDS011;21436;52.348;20.928;2023-09-19T12:25:17;10.40;;;7.18;;
35326;SDS011;21436;52.348;20.928;2023-09-19T12:27:48;14.45;;;8.15;;
35326;SDS011;21436;52.348;20.928;2023-09-19T12:30:27;12.45;;;7.65;;
35326;SDS011;21436;52.348;20.928;2023-09-19T12:32:56;11.38;;;7.40;;
35326;SDS011;21436;52.348;20.928;2023-09-19T12:35:28;12.35;;;7.20;;
35326;SDS011;21436;52.348;20.928;2023-09-19T12:38:02;11.68;;;8.35;;
35326;SDS011;21436;52.348;20.928;2023-09-19T12:40:32;11.43;;;7.57;;
35326;SDS011;21436;52.348;20.928;2023-09-19T12:43:06;13.80;;;8.23;;
35326;SDS011;21436;52.348;20.928;2023-09-19T12:45:35;13.63;;;8.75;;
35326;SDS011;21436;52.348;20.928;2023-09-19T12:51:06;16.67;;;8.55;;
35326;SDS011;21436;52.348;20.928;2023-09-19T12:56:14;12.77;;;8.40;;
35326;SDS011;21436;52.348;20.928;2023-09-19T13:01:34;12.00;;;9.02;;
35326;SDS011;21436;52.348;20.928;2023-09-19T13:04:14;12.73;;;8.75;;
35326;SDS011;21436;52.348;20.928;2023-09-19T13:06:47;14.60;;;9.73;;
35326;SDS011;21436;52.348;20.928;2023-09-19T13:09:19;16.77;;;9.47;;
35326;SDS011;21436;52.348;20.928;2023-09-19T13:11:48;14.05;;;8.80;;
35326;SDS011;21436;52.348;20.928;2023-09-19T13:14:19;12.98;;;8.57;;
35326;SDS011;21436;52.348;20.928;2023-09-19T13:16:59;15.13;;;9.02;;
35326;SDS011;21436;52.348;20.928;2023-09-19T13:19:51;11.95;;;8.93;;
35326;SDS011;21436;52.348;20.928;2023-09-19T13:25:31;15.98;;;9.05;;
35326;SDS011;21436;52.348;20.928;2023-09-19T13:28:00;12.68;;;9.18;;
35326;SDS011;21436;52.348;20.928;2023-09-19T13:30:32;12.50;;;8.27;;
35326;SDS011;21436;52.348;20.928;2023-09-19T13:33:11;12.10;;;9.27;;
35326;SDS011;21436;52.348;20.928;2023-09-19T13:35:41;10.70;;;8.25;;
35326;SDS011;21436;52.348;20.928;2023-09-19T13:38:10;15.82;;;9.10;;
35326;SDS011;21436;52.348;20.928;2023-09-19T13:40:39;15.45;;;8.65;;
35326;SDS011;21436;52.348;20.928;2023-09-19T13:43:10;14.55;;;9.23;;
35326;SDS011;21436;52.348;20.928;2023-09-19T13:45:41;11.75;;;8.77;;
35326;SDS011;21436;52.348;20.928;2023-09-19T13:48:10;11.27;;;8.40;;
35326;SDS011;21436;52.348;20.928;2023-09-19T13:50:38;13.77;;;8.48;;
35326;SDS011;21436;52.348;20.928;2023-09-19T13:53:10;26.35;;;9.15;;
35326;SDS011;21436;52.348;20.928;2023-09-19T13:55:39;17.02;;;8.80;;
35326;SDS011;21436;52.348;20.928;2023-09-19T13:58:09;12.60;;;8.07;;
35326;SDS011;21436;52.348;20.928;2023-09-19T14:00:40;15.70;;;8.45;;
35326;SDS011;21436;52.348;20.928;2023-09-19T14:03:08;14.38;;;8.95;;
35326;SDS011;21436;52.348;20.928;2023-09-19T14:05:39;13.80;;;8.82;;
35326;SDS011;21436;52.348;20.928;2023-09-19T14:08:10;16.17;;;8.90;;
35326;SDS011;21436;52.348;20.928;2023-09-19T14:10:40;12.23;;;8.73;;
35326;SDS011;21436;52.348;20.928;2023-09-19T14:13:10;12.55;;;7.90;;
35326;SDS011;21436;52.348;20.928;2023-09-19T14:15:40;13.85;;;8.43;;
35326;SDS011;21436;52.348;20.928;2023-09-19T14:18:15;11.38;;;8.27;;
35326;SDS011;21436;52.348;20.928;2023-09-19T14:20:43;11.40;;;8.48;;
35326;SDS011;21436;52.348;20.928;2023-09-19T14:23:12;11.38;;;8.32;;
35326;SDS011;21436;52.348;20.928;2023-09-19T14:25:41;10.18;;;8.00;;
35326;SDS011;21436;52.348;20.928;2023-09-19T14:28:09;10.50;;;7.57;;
35326;SDS011;21436;52.348;20.928;2023-09-19T14:30:37;16.60;;;8.82;;
35326;SDS011;21436;52.348;20.928;2023-09-19T14:33:06;10.30;;;7.40;;
35326;SDS011;21436;52.348;20.928;2023-09-19T14:35:36;12.70;;;8.20;;
35326;SDS011;21436;52.348;20.928;2023-09-19T14:38:05;15.10;;;8.32;;
35326;SDS011;21436;52.348;20.928;2023-09-19T14:40:34;16.02;;;8.00;;
35326;SDS011;21436;52.348;20.928;2023-09-19T14:43:04;12.45;;;8.00;;
35326;SDS011;21436;52.348;20.928;2023-09-19T14:45:32;10.25;;;8.60;;
35326;SDS011;21436;52.348;20.928;2023-09-19T14:48:01;9.40;;;8.27;;
35326;SDS011;21436;52.348;20.928;2023-09-19T14:50:32;10.75;;;9.13;;
35326;SDS011;21436;52.348;20.928;2023-09-19T14:53:01;11.10;;;9.18;;
35326;SDS011;21436;52.348;20.928;2023-09-19T14:55:30;10.32;;;9.25;;
35326;SDS011;21436;52.348;20.928;2023-09-19T14:58:03;9.63;;;8.48;;
35326;SDS011;21436;52.348;20.928;2023-09-19T15:00:31;12.45;;;8.32;;
35326;SDS011;21436;52.348;20.928;2023-09-19T15:03:00;11.32;;;8.15;;
35326;SDS011;21436;52.348;20.928;2023-09-19T15:05:29;10.18;;;7.57;;
35326;SDS011;21436;52.348;20.928;2023-09-19T15:07:58;10.98;;;8.27;;
35326;SDS011;21436;52.348;20.928;2023-09-19T15:10:26;13.55;;;9.02;;
35326;SDS011;21436;52.348;20.928;2023-09-19T15:12:54;10.07;;;8.43;;
35326;SDS011;21436;52.348;20.928;2023-09-19T15:15:22;10.35;;;8.10;;
35326;SDS011;21436;52.348;20.928;2023-09-19T15:17:51;7.70;;;6.90;;
35326;SDS011;21436;52.348;20.928;2023-09-19T15:20:19;12.43;;;7.85;;
35326;SDS011;21436;52.348;20.928;2023-09-19T15:22:48;8.50;;;7.10;;
35326;SDS011;21436;52.348;20.928;2023-09-19T15:25:16;11.55;;;7.75;;
35326;SDS011;21436;52.348;20.928;2023-09-19T15:27:45;9.23;;;6.50;;
35326;SDS011;21436;52.348;20.928;2023-09-19T15:30:13;8.60;;;6.72;;
35326;SDS011;21436;52.348;20.928;2023-09-19T15:32:43;8.70;;;6.63;;
35326;SDS011;21436;52.348;20.928;2023-09-19T15:35:11;10.18;;;6.30;;